createdAt,value
2019-01-30T00:00:32.078Z,64.03
2019-01-30T00:03:00.289Z,56.68
2019-01-30T00:05:28.406Z,52.85
2019-01-30T00:07:56.542Z,54.98
2019-01-30T00:10:24.519Z,53.68
2019-01-30T00:12:52.800Z,56.65
2019-01-30T00:15:20.764Z,56.37
2019-01-30T00:17:48.845Z,58.08
2019-01-30T00:20:16.766Z,58.78
2019-01-30T00:22:44.535Z,60.70
2019-01-30T00:25:12.591Z,60.20
2019-01-30T00:27:40.673Z,66.55
2019-01-30T00:30:09.612Z,66.20
2019-01-30T00:32:37.522Z,63.45
2019-01-30T00:35:06.758Z,64.90
2019-01-30T00:37:34.718Z,62.73
2019-01-30T00:40:02.859Z,55.28
2019-01-30T00:42:30.722Z,50.73
2019-01-30T00:44:58.540Z,49.85
2019-01-30T00:47:26.293Z,45.75
2019-01-30T00:49:54.248Z,47.78
2019-01-30T00:52:22.125Z,50.35
2019-01-30T00:54:50.009Z,52.75
2019-01-30T00:57:17.849Z,52.78
2019-01-30T00:59:45.634Z,50.80
2019-01-30T01:02:13.705Z,50.88
2019-01-30T01:04:41.705Z,48.70
2019-01-30T01:07:09.753Z,50.30
2019-01-30T01:09:37.793Z,49.53
2019-01-30T01:12:05.893Z,49.73
2019-01-30T01:14:34.815Z,48.08
2019-01-30T01:17:02.789Z,49.30
2019-01-30T01:19:30.687Z,51.53
2019-01-30T01:22:00.989Z,51.08
2019-01-30T01:24:29.071Z,57.08
2019-01-30T01:26:57.083Z,58.13
2019-01-30T01:29:26.039Z,60.25
2019-01-30T01:31:53.985Z,55.52
2019-01-30T01:34:22.028Z,54.93
2019-01-30T01:36:49.780Z,53.42
2019-01-30T01:39:17.697Z,54.35
2019-01-30T01:41:45.455Z,56.45
2019-01-30T01:44:13.455Z,58.87
2019-01-30T01:46:41.428Z,58.25
2019-01-30T01:49:09.375Z,50.45
2019-01-30T01:51:37.329Z,48.70
2019-01-30T01:54:05.288Z,43.92
2019-01-30T01:56:33.247Z,47.25
2019-01-30T01:59:01.131Z,45.35
2019-01-30T02:01:29.021Z,43.90
2019-01-30T02:03:57.166Z,45.80
2019-01-30T02:06:25.166Z,47.62
2019-01-30T02:08:53.023Z,46.80
2019-01-30T02:11:20.966Z,56.88
2019-01-30T02:13:48.727Z,62.13
2019-01-30T02:16:16.930Z,57.17
2019-01-30T02:18:44.700Z,51.53
2019-01-30T02:21:12.715Z,48.87
2019-01-30T02:23:40.478Z,48.08
2019-01-30T02:26:08.531Z,51.30
2019-01-30T02:28:36.506Z,51.80
2019-01-30T02:31:04.431Z,46.58
2019-01-30T02:33:32.352Z,44.00
2019-01-30T02:36:00.305Z,41.60
2019-01-30T02:38:28.120Z,40.40
2019-01-30T02:40:56.043Z,40.95
2019-01-30T02:43:24.096Z,37.67
2019-01-30T02:45:51.972Z,37.65
2019-01-30T02:48:19.869Z,37.93
2019-01-30T02:50:47.840Z,36.30
2019-01-30T02:53:15.719Z,37.95
2019-01-30T02:55:45.145Z,38.98
2019-01-30T02:58:13.045Z,38.88
2019-01-30T03:00:41.124Z,36.85
2019-01-30T03:03:09.015Z,36.28
2019-01-30T03:05:36.969Z,36.73
2019-01-30T03:08:05.131Z,35.73
2019-01-30T03:10:33.126Z,35.05
2019-01-30T03:13:01.096Z,35.33
2019-01-30T03:15:29.130Z,39.73
2019-01-30T03:17:56.994Z,37.65
2019-01-30T03:20:25.796Z,37.75
2019-01-30T03:22:54.060Z,39.85
2019-01-30T03:25:22.810Z,37.95
2019-01-30T03:27:50.849Z,38.63
2019-01-30T03:30:20.910Z,41.92
2019-01-30T03:32:49.776Z,42.35
2019-01-30T03:35:17.942Z,42.38
2019-01-30T03:37:45.910Z,41.83
2019-01-30T03:40:15.611Z,41.83
2019-01-30T03:42:43.466Z,42.00
2019-01-30T03:45:12.208Z,44.18
2019-01-30T03:47:40.867Z,44.53
2019-01-30T03:50:09.798Z,46.48
2019-01-30T03:52:37.714Z,46.80
2019-01-30T03:55:07.196Z,46.13
2019-01-30T03:57:42.607Z,47.93
2019-01-30T04:00:16.340Z,47.10
2019-01-30T04:02:44.401Z,49.77
2019-01-30T04:05:12.506Z,49.15
2019-01-30T04:07:40.449Z,49.77
2019-01-30T04:10:10.240Z,48.63
2019-01-30T04:12:38.320Z,48.95
2019-01-30T04:15:06.929Z,50.00
2019-01-30T04:17:34.781Z,50.25
2019-01-30T04:20:03.553Z,50.20
2019-01-30T04:22:31.400Z,47.48
2019-01-30T04:24:59.485Z,50.00
2019-01-30T04:27:27.443Z,48.17
2019-01-30T04:29:55.417Z,49.90
2019-01-30T04:32:23.327Z,48.50
2019-01-30T04:34:51.182Z,51.10
2019-01-30T04:37:18.957Z,50.17
2019-01-30T04:39:46.993Z,50.73
2019-01-30T04:42:14.940Z,50.28
2019-01-30T04:44:43.550Z,48.80
2019-01-30T04:47:11.319Z,50.80
2019-01-30T04:49:39.209Z,50.75
2019-01-30T04:52:07.273Z,50.38
2019-01-30T04:54:35.112Z,51.48
2019-01-30T04:57:02.999Z,51.25
2019-01-30T04:59:33.732Z,51.23
2019-01-30T05:02:02.226Z,50.33
2019-01-30T05:04:30.134Z,52.98
2019-01-30T05:06:58.057Z,51.35
2019-01-30T05:09:26.212Z,52.13
2019-01-30T05:11:54.361Z,51.80
2019-01-30T05:14:22.260Z,49.85
2019-01-30T05:16:50.137Z,50.12
2019-01-30T05:19:17.981Z,48.40
2019-01-30T05:21:45.878Z,47.93
2019-01-30T05:24:13.840Z,46.02
2019-01-30T05:26:41.617Z,45.98
2019-01-30T05:29:09.451Z,46.15
2019-01-30T05:31:37.262Z,45.75
2019-01-30T05:34:05.253Z,46.00
2019-01-30T05:36:33.313Z,44.45
2019-01-30T05:39:01.169Z,50.35
2019-01-30T05:41:29.802Z,50.30
2019-01-30T05:43:57.683Z,51.25
2019-01-30T05:46:25.453Z,50.55
2019-01-30T05:48:53.872Z,53.68
2019-01-30T05:51:21.724Z,59.58
2019-01-30T05:53:49.745Z,71.67
2019-01-30T05:56:20.188Z,79.58
2019-01-30T05:58:47.385Z,76.10
2019-01-30T06:01:17.791Z,83.60
2019-01-30T06:03:45.957Z,75.50
2019-01-30T06:06:13.887Z,68.33
2019-01-30T06:08:41.744Z,65.60
2019-01-30T06:11:12.119Z,69.42
2019-01-30T06:13:39.447Z,75.92
2019-01-30T06:16:07.481Z,79.20
2019-01-30T06:18:36.047Z,80.28
2019-01-30T06:21:04.081Z,83.65
2019-01-30T06:23:33.006Z,79.12
2019-01-30T06:26:00.989Z,83.72
2019-01-30T06:28:29.423Z,84.07
2019-01-30T06:30:57.509Z,88.12
2019-01-30T06:33:25.426Z,74.95
2019-01-30T06:35:53.861Z,76.05
2019-01-30T06:38:21.871Z,73.87
2019-01-30T06:40:49.780Z,69.17
2019-01-30T06:43:17.646Z,64.40
2019-01-30T06:45:45.677Z,64.15
2019-01-30T06:48:13.639Z,62.27
2019-01-30T06:50:42.040Z,59.48
2019-01-30T06:53:10.001Z,73.05
2019-01-30T06:55:37.896Z,58.17
2019-01-30T06:58:05.944Z,56.77
2019-01-30T07:00:33.952Z,60.58
2019-01-30T07:03:02.542Z,58.78
2019-01-30T07:05:30.510Z,55.05
2019-01-30T07:07:58.484Z,50.73
2019-01-30T07:10:30.144Z,52.17
2019-01-30T07:12:58.109Z,60.50
2019-01-30T07:15:26.121Z,66.53
2019-01-30T07:17:55.054Z,59.98
2019-01-30T07:20:23.055Z,53.30
2019-01-30T07:22:51.038Z,49.13
2019-01-30T07:25:20.095Z,49.53
2019-01-30T07:27:48.131Z,47.65
2019-01-30T07:30:28.055Z,41.48
2019-01-30T07:32:55.962Z,41.08
2019-01-30T07:35:24.069Z,41.73
2019-01-30T07:37:52.158Z,42.53
2019-01-30T07:40:20.358Z,40.95
2019-01-30T07:42:48.216Z,42.23
2019-01-30T07:45:17.430Z,38.60
2019-01-30T07:47:45.405Z,41.18
2019-01-30T07:50:13.626Z,41.30
2019-01-30T07:52:41.717Z,40.98
2019-01-30T07:55:12.259Z,37.80
2019-01-30T07:57:40.244Z,39.75
2019-01-30T08:00:11.685Z,38.17
2019-01-30T08:02:39.575Z,37.13
2019-01-30T08:05:07.956Z,36.00
2019-01-30T08:07:35.985Z,37.65
2019-01-30T08:10:05.401Z,34.58
2019-01-30T08:12:33.370Z,34.63
2019-01-30T08:15:01.336Z,36.00
2019-01-30T08:17:29.697Z,35.90
2019-01-30T08:19:57.631Z,35.88
2019-01-30T08:22:25.814Z,34.03
2019-01-30T08:24:53.919Z,31.00
2019-01-30T08:27:22.154Z,31.40
2019-01-30T08:29:50.483Z,29.40
2019-01-30T08:32:18.632Z,31.10
2019-01-30T08:34:46.742Z,30.10
2019-01-30T08:37:18.810Z,28.52
2019-01-30T08:39:46.670Z,28.12
2019-01-30T08:42:14.752Z,27.75
2019-01-30T08:44:46.976Z,28.35
2019-01-30T08:47:12.751Z,30.65
2019-01-30T08:49:40.734Z,29.07
2019-01-30T08:52:09.530Z,28.12
2019-01-30T08:54:37.338Z,23.85
2019-01-30T08:57:05.417Z,23.80
2019-01-30T08:59:33.398Z,25.20
2019-01-30T09:02:01.345Z,24.92
2019-01-30T09:04:29.967Z,26.85
2019-01-30T09:06:57.884Z,26.23
2019-01-30T09:09:25.932Z,27.05
2019-01-30T09:11:53.918Z,25.92
2019-01-30T09:14:21.894Z,24.07
2019-01-30T09:16:49.874Z,24.90
2019-01-30T09:19:17.814Z,25.55
2019-01-30T09:21:45.847Z,22.87
2019-01-30T09:24:16.141Z,23.12
2019-01-30T09:26:43.604Z,24.43
2019-01-30T09:29:11.536Z,24.55
2019-01-30T09:31:39.448Z,22.02
2019-01-30T09:34:07.279Z,18.52
2019-01-30T09:36:35.075Z,27.20
2019-01-30T09:39:18.386Z,19.82
2019-01-30T09:41:46.326Z,24.12
2019-01-30T09:44:14.314Z,29.37
2019-01-30T09:46:42.193Z,41.53
2019-01-30T09:49:09.983Z,32.90
2019-01-30T09:51:37.862Z,25.65
2019-01-30T09:54:05.926Z,20.00
2019-01-30T09:56:34.707Z,27.65
2019-01-30T09:59:02.624Z,27.45
2019-01-30T10:01:31.000Z,25.92
2019-01-30T10:03:58.948Z,22.40
2019-01-30T10:06:26.870Z,20.77
2019-01-30T10:08:55.219Z,24.55
2019-01-30T10:11:23.040Z,22.90
2019-01-30T10:13:50.937Z,21.33
2019-01-30T10:16:18.898Z,22.27
2019-01-30T10:18:46.704Z,24.20
2019-01-30T10:21:14.879Z,23.00
2019-01-30T10:23:42.857Z,23.80
2019-01-30T10:26:10.910Z,22.35
2019-01-30T10:28:38.851Z,23.40
2019-01-30T10:31:06.952Z,23.55
2019-01-30T10:33:34.843Z,22.80
2019-01-30T10:36:02.959Z,24.15
2019-01-30T10:38:31.139Z,22.50
2019-01-30T10:40:59.149Z,23.47
2019-01-30T10:43:27.154Z,22.90
2019-01-30T10:45:56.864Z,21.55
2019-01-30T10:48:24.774Z,22.95
2019-01-30T10:50:52.811Z,23.32
2019-01-30T10:53:20.723Z,20.95
2019-01-30T10:55:48.694Z,23.35
2019-01-30T10:58:17.562Z,22.45
2019-01-30T11:00:48.169Z,21.85
2019-01-30T11:03:16.570Z,24.65
2019-01-30T11:05:44.749Z,24.02
2019-01-30T11:08:12.793Z,24.35
2019-01-30T11:10:40.776Z,23.05
2019-01-30T11:13:16.461Z,23.73
2019-01-30T11:15:44.416Z,24.32
2019-01-30T11:18:14.768Z,24.40
2019-01-30T11:20:42.841Z,26.02
2019-01-30T11:23:10.849Z,26.60
2019-01-30T11:25:40.244Z,28.83
2019-01-30T11:28:08.367Z,26.57
2019-01-30T11:30:36.452Z,28.12
2019-01-30T11:33:04.837Z,28.47
2019-01-30T11:35:32.970Z,26.57
2019-01-30T11:38:01.132Z,25.00
2019-01-30T11:40:29.186Z,25.92
2019-01-30T11:42:57.164Z,24.72
2019-01-30T11:45:30.742Z,23.52
2019-01-30T11:47:58.723Z,24.70
2019-01-30T11:50:26.766Z,24.98
2019-01-30T11:52:54.725Z,25.12
2019-01-30T11:55:23.095Z,27.32
2019-01-30T11:57:50.981Z,24.72
2019-01-30T12:00:33.951Z,23.92
2019-01-30T12:03:01.837Z,23.60
2019-01-30T12:05:29.730Z,25.37
2019-01-30T12:07:58.147Z,25.77
2019-01-30T12:10:26.178Z,23.15
2019-01-30T12:12:54.059Z,23.87
2019-01-30T12:15:25.966Z,24.18
2019-01-30T12:17:53.881Z,23.32
2019-01-30T12:20:21.941Z,22.17
2019-01-30T12:22:50.717Z,22.77
2019-01-30T12:25:19.107Z,22.45
2019-01-30T12:27:47.140Z,23.02
2019-01-30T12:30:17.506Z,24.02
2019-01-30T12:32:45.437Z,23.50
2019-01-30T12:35:13.639Z,22.10
2019-01-30T12:37:41.698Z,22.70
2019-01-30T12:40:11.210Z,22.00
2019-01-30T12:42:39.299Z,22.10
2019-01-30T12:45:09.269Z,20.72
2019-01-30T12:47:37.284Z,22.93
2019-01-30T12:50:07.550Z,22.17
2019-01-30T12:52:35.539Z,20.70
2019-01-30T12:55:04.130Z,21.82
2019-01-30T12:57:31.988Z,22.02
2019-01-30T12:59:59.761Z,20.43
2019-01-30T13:02:27.880Z,20.12
2019-01-30T13:04:55.668Z,21.37
2019-01-30T13:07:23.727Z,21.15
2019-01-30T13:09:51.731Z,22.73
2019-01-30T13:12:19.704Z,21.57
2019-01-30T13:14:47.739Z,23.25
2019-01-30T13:17:19.339Z,22.58
2019-01-30T13:19:47.775Z,21.33
2019-01-30T13:22:15.679Z,22.48
2019-01-30T13:24:43.971Z,20.57
2019-01-30T13:27:11.935Z,20.35
2019-01-30T13:29:39.745Z,21.75
2019-01-30T13:32:07.867Z,39.65
2019-01-30T13:34:35.768Z,29.67
2019-01-30T13:37:03.843Z,31.87
2019-01-30T13:39:31.777Z,36.08
2019-01-30T13:42:00.542Z,30.37
2019-01-30T13:44:28.490Z,23.07
2019-01-30T13:46:56.641Z,28.52
2019-01-30T13:49:24.559Z,27.20
2019-01-30T13:51:52.361Z,23.80
2019-01-30T13:54:20.421Z,26.00
2019-01-30T13:56:48.640Z,33.15
2019-01-30T13:59:16.629Z,25.23
2019-01-30T14:01:44.639Z,25.47
2019-01-30T14:04:13.183Z,26.90
2019-01-30T14:06:41.233Z,29.23
2019-01-30T14:09:09.585Z,31.77
2019-01-30T14:11:37.584Z,34.80
2019-01-30T14:14:05.716Z,25.43
2019-01-30T14:16:33.800Z,28.20
2019-01-30T14:19:01.940Z,27.77
2019-01-30T14:21:29.816Z,24.00
2019-01-30T14:23:57.714Z,22.80
2019-01-30T14:26:25.608Z,21.73
2019-01-30T14:28:53.521Z,22.10
2019-01-30T14:31:21.616Z,20.43
2019-01-30T14:33:50.288Z,23.27
2019-01-30T14:36:18.289Z,21.97
2019-01-30T14:38:46.258Z,22.60
2019-01-30T14:41:14.182Z,23.80
2019-01-30T14:43:41.995Z,25.03
2019-01-30T14:46:10.041Z,29.67
2019-01-30T14:48:38.109Z,34.63
2019-01-30T14:51:19.294Z,33.37
2019-01-30T14:53:47.161Z,31.30
2019-01-30T14:56:15.042Z,33.53
2019-01-30T14:58:42.817Z,34.73
2019-01-30T15:01:10.764Z,32.33
2019-01-30T15:03:38.756Z,36.13
2019-01-30T15:06:06.747Z,32.97
2019-01-30T15:08:34.655Z,31.70
2019-01-30T15:11:02.619Z,28.67
2019-01-30T15:13:30.725Z,28.23
2019-01-30T15:15:58.596Z,28.97
2019-01-30T15:18:26.703Z,26.67
2019-01-30T15:20:54.491Z,27.57
2019-01-30T15:23:22.298Z,27.30
2019-01-30T15:25:50.449Z,29.37
2019-01-30T15:28:18.348Z,33.07
2019-01-30T15:30:47.519Z,31.00
2019-01-30T15:33:15.559Z,30.87
2019-01-30T15:35:43.755Z,30.63
2019-01-30T15:38:13.444Z,31.33
2019-01-30T15:40:41.672Z,32.67
2019-01-30T15:43:09.735Z,36.13
2019-01-30T15:45:37.783Z,37.28
2019-01-30T15:48:06.027Z,43.15
2019-01-30T15:50:35.020Z,59.25
2019-01-30T15:53:05.889Z,79.00
2019-01-30T15:55:34.050Z,80.60
2019-01-30T15:58:05.134Z,85.00
2019-01-30T16:00:36.053Z,85.53
2019-01-30T16:03:04.272Z,70.80
2019-01-30T16:05:32.320Z,54.08
2019-01-30T16:08:00.283Z,47.47
2019-01-30T16:10:28.298Z,47.10
2019-01-30T16:12:56.257Z,47.10
2019-01-30T16:15:27.371Z,46.17
2019-01-30T16:17:55.352Z,43.00
2019-01-30T16:20:23.497Z,39.03
2019-01-30T16:22:51.476Z,36.80
2019-01-30T16:25:19.445Z,36.97
2019-01-30T16:27:47.437Z,51.48
2019-01-30T16:30:17.998Z,55.45
2019-01-30T16:32:47.820Z,50.17
2019-01-30T16:35:21.386Z,48.70
2019-01-30T16:37:49.408Z,46.75
2019-01-30T16:40:17.494Z,48.38
2019-01-30T16:42:45.421Z,59.48
2019-01-30T16:45:15.733Z,69.03
2019-01-30T16:47:44.409Z,63.73
2019-01-30T16:50:13.542Z,58.17
2019-01-30T16:52:41.513Z,65.97
2019-01-30T16:55:10.474Z,75.50
2019-01-30T16:57:38.482Z,75.78
2019-01-30T17:00:10.134Z,63.20
2019-01-30T17:02:38.134Z,57.38
2019-01-30T17:05:08.679Z,57.43
2019-01-30T17:07:36.852Z,57.83
2019-01-30T17:10:07.053Z,55.30
2019-01-30T17:12:35.000Z,50.25
2019-01-30T17:15:03.286Z,47.05
2019-01-30T17:17:31.399Z,47.65
2019-01-30T17:19:59.687Z,47.50
2019-01-30T17:22:27.642Z,44.98
2019-01-30T17:24:56.132Z,55.17
2019-01-30T17:27:24.120Z,54.53
2019-01-30T17:29:52.020Z,54.88
2019-01-30T17:32:19.839Z,57.75
2019-01-30T17:34:47.878Z,56.80
2019-01-30T17:37:15.824Z,53.02
2019-01-30T17:39:43.818Z,53.50
2019-01-30T17:42:11.894Z,57.48
2019-01-30T17:44:39.748Z,56.45
2019-01-30T17:47:07.861Z,52.35
2019-01-30T17:49:35.737Z,45.33
2019-01-30T17:52:03.703Z,44.45
2019-01-30T17:54:31.548Z,40.73
2019-01-30T17:56:59.605Z,41.58
2019-01-30T17:59:27.445Z,45.73
2019-01-30T18:01:55.526Z,51.68
2019-01-30T18:04:23.419Z,54.93
2019-01-30T18:06:51.400Z,54.00
2019-01-30T18:09:19.371Z,53.55
2019-01-30T18:11:47.398Z,53.02
2019-01-30T18:14:15.378Z,53.58
2019-01-30T18:16:43.444Z,56.10
2019-01-30T18:19:11.210Z,61.85
2019-01-30T18:21:39.260Z,64.15
2019-01-30T18:24:07.342Z,63.33
2019-01-30T18:26:37.975Z,62.05
2019-01-30T18:29:05.206Z,61.50
2019-01-30T18:31:33.025Z,58.02
2019-01-30T18:34:01.095Z,66.07
2019-01-30T18:36:40.400Z,76.77
2019-01-30T18:38:59.371Z,77.45
2019-01-30T18:41:27.333Z,67.65
2019-01-30T18:43:55.513Z,60.40
2019-01-30T18:46:24.145Z,65.62
2019-01-30T18:48:52.083Z,70.85
2019-01-30T18:51:20.067Z,71.97
2019-01-30T18:53:48.369Z,61.77
2019-01-30T18:56:16.312Z,61.28
2019-01-30T18:58:44.296Z,67.58
2019-01-30T19:01:12.274Z,69.45
2019-01-30T19:03:40.246Z,60.58
2019-01-30T19:06:08.220Z,60.92
2019-01-30T19:08:36.210Z,56.18
2019-01-30T19:11:04.176Z,54.85
2019-01-30T19:13:32.180Z,52.20
2019-01-30T19:16:00.718Z,52.83
2019-01-30T19:18:28.815Z,52.93
2019-01-30T19:20:56.810Z,58.17
2019-01-30T19:23:24.655Z,62.35
2019-01-30T19:25:52.434Z,61.85
2019-01-30T19:28:20.271Z,60.92
2019-01-30T19:30:48.146Z,64.27
2019-01-30T19:33:16.132Z,60.92
2019-01-30T19:35:44.136Z,58.05
2019-01-30T19:38:12.040Z,61.28
2019-01-30T19:40:40.006Z,60.73
2019-01-30T19:43:07.866Z,62.23
2019-01-30T19:45:35.920Z,60.33
2019-01-30T19:48:05.090Z,68.25
2019-01-30T19:50:33.146Z,64.90
2019-01-30T19:53:01.146Z,72.12
2019-01-30T19:55:29.118Z,63.28
2019-01-30T19:57:57.244Z,69.77
2019-01-30T20:00:30.644Z,91.87
2019-01-30T20:02:59.057Z,96.10
2019-01-30T20:05:27.045Z,98.87
2019-01-30T20:07:55.122Z,117.10
2019-01-30T20:10:28.759Z,136.32
2019-01-30T20:12:56.800Z,122.22
2019-01-30T20:15:24.878Z,114.82
2019-01-30T20:17:52.840Z,116.05
2019-01-30T20:20:21.298Z,101.35
2019-01-30T20:22:49.477Z,89.72
2019-01-30T20:25:19.863Z,94.85
2019-01-30T20:27:47.810Z,94.28
2019-01-30T20:30:17.749Z,99.80
2019-01-30T20:32:46.014Z,147.80
2019-01-30T20:35:14.165Z,165.50
2019-01-30T20:37:42.068Z,160.78
2019-01-30T20:40:13.240Z,155.32
2019-01-30T20:42:41.415Z,128.97
2019-01-30T20:45:10.641Z,108.47
2019-01-30T20:47:38.739Z,96.32
2019-01-30T20:50:09.514Z,93.47
2019-01-30T20:52:37.334Z,83.47
2019-01-30T20:55:06.123Z,81.12
2019-01-30T20:57:34.041Z,85.15
2019-01-30T21:00:04.067Z,102.85
2019-01-30T21:02:32.649Z,111.32
2019-01-30T21:05:00.681Z,105.70
2019-01-30T21:07:37.023Z,102.53
2019-01-30T21:09:58.440Z,97.55
2019-01-30T21:12:26.368Z,117.53
2019-01-30T21:14:54.208Z,114.17
2019-01-30T21:17:22.107Z,116.82
2019-01-30T21:19:49.909Z,139.30
2019-01-30T21:22:17.778Z,185.10
2019-01-30T21:24:45.703Z,174.82
2019-01-30T21:27:13.698Z,148.32
2019-01-30T21:29:41.697Z,117.10
2019-01-30T21:32:14.078Z,115.28
2019-01-30T21:34:41.854Z,128.85
2019-01-30T21:37:09.694Z,95.53
2019-01-30T21:39:37.667Z,76.05
2019-01-30T21:42:05.741Z,74.82
2019-01-30T21:44:33.536Z,71.55
2019-01-30T21:47:02.700Z,73.20
2019-01-30T21:49:30.811Z,70.75
2019-01-30T21:51:58.821Z,67.65
2019-01-30T21:54:26.878Z,64.12
2019-01-30T21:56:55.503Z,66.07
2019-01-30T21:59:23.276Z,65.32
2019-01-30T22:01:51.219Z,70.87
2019-01-30T22:04:19.124Z,75.47
2019-01-30T22:06:47.353Z,70.17
2019-01-30T22:09:15.214Z,66.22
2019-01-30T22:11:43.201Z,61.80
2019-01-30T22:14:11.147Z,64.92
2019-01-30T22:16:38.943Z,67.90
2019-01-30T22:19:07.016Z,71.65
2019-01-30T22:21:34.813Z,76.12
2019-01-30T22:24:05.522Z,84.30
2019-01-30T22:26:32.720Z,81.92
2019-01-30T22:29:02.695Z,86.87
2019-01-30T22:31:30.445Z,77.58
2019-01-30T22:33:58.829Z,67.00
2019-01-30T22:36:26.679Z,64.70
2019-01-30T22:38:54.500Z,63.48
2019-01-30T22:41:22.418Z,65.00
2019-01-30T22:43:50.326Z,68.80
2019-01-30T22:46:18.316Z,73.50
2019-01-30T22:48:46.244Z,71.90
2019-01-30T22:51:14.088Z,67.90
2019-01-30T22:53:41.972Z,64.05
2019-01-30T22:56:09.935Z,61.77
2019-01-30T22:58:37.788Z,63.98
2019-01-30T23:01:26.988Z,63.23
2019-01-30T23:04:27.949Z,65.40
2019-01-30T23:07:38.053Z,64.58
2019-01-30T23:10:45.120Z,62.13
2019-01-30T23:13:33.723Z,69.05
2019-01-30T23:16:40.294Z,69.45
2019-01-30T23:20:04.932Z,71.17
2019-01-30T23:23:04.748Z,74.35
2019-01-30T23:25:54.127Z,73.72
2019-01-30T23:28:42.050Z,78.97
2019-01-30T23:31:32.831Z,76.80
2019-01-30T23:34:33.898Z,74.12
2019-01-30T23:37:23.769Z,73.10
2019-01-30T23:40:30.262Z,79.85
2019-01-30T23:43:43.589Z,78.17
2019-01-30T23:46:32.856Z,77.80
2019-01-30T23:49:48.619Z,82.97
2019-01-30T23:52:57.776Z,77.32
2019-01-30T23:56:06.253Z,77.08
2019-01-30T23:58:51.417Z,73.72
